createdAt,value
2022-09-04T00:00:48.092Z,3.75
2022-09-04T00:03:35.468Z,3.35
2022-09-04T00:06:07.649Z,6.13
2022-09-04T00:08:56.741Z,6.05
2022-09-04T00:11:38.214Z,3.90
2022-09-04T00:14:17.742Z,3.80
2022-09-04T00:17:07.388Z,3.40
2022-09-04T00:20:10.401Z,3.60
2022-09-04T00:22:53.943Z,3.70
2022-09-04T00:25:29.663Z,4.10
2022-09-04T00:28:38.146Z,6.18
2022-09-04T00:31:30.841Z,3.73
2022-09-04T00:34:09.555Z,4.70
2022-09-04T00:36:40.878Z,5.07
2022-09-04T00:39:15.566Z,4.65
2022-09-04T00:44:31.961Z,4.90
2022-09-04T00:47:17.263Z,4.45
2022-09-04T00:49:58.771Z,4.00
2022-09-04T00:52:36.313Z,4.18
2022-09-04T00:55:06.741Z,4.30
2022-09-04T00:57:39.028Z,3.65
2022-09-04T01:00:07.415Z,3.90
2022-09-04T01:02:51.686Z,3.58
2022-09-04T01:05:40.505Z,3.45
2022-09-04T01:08:25.980Z,3.10
2022-09-04T01:11:32.109Z,3.00
2022-09-04T01:14:13.317Z,2.92
2022-09-04T01:16:59.720Z,3.13
2022-09-04T01:19:35.082Z,2.75
2022-09-04T01:22:04.601Z,3.20
2022-09-04T01:27:21.536Z,3.15
2022-09-04T01:29:57.074Z,2.97
2022-09-04T01:32:23.710Z,2.78
2022-09-04T01:35:06.987Z,2.75
2022-09-04T01:38:04.046Z,2.80
2022-09-04T01:40:47.362Z,2.97
2022-09-04T01:43:21.186Z,2.70
2022-09-04T01:46:08.182Z,2.60
2022-09-04T01:48:54.658Z,2.70
2022-09-04T01:51:24.360Z,2.60
2022-09-04T01:54:03.381Z,2.70
2022-09-04T01:56:40.342Z,2.97
2022-09-04T01:59:26.629Z,2.83
2022-09-04T02:02:15.707Z,3.33
2022-09-04T02:05:17.778Z,2.80
2022-09-04T02:08:34.056Z,2.88
2022-09-04T02:11:18.761Z,2.50
2022-09-04T02:13:47.184Z,2.85
2022-09-04T02:16:45.484Z,3.00
2022-09-04T02:19:50.295Z,3.15
2022-09-04T02:22:47.846Z,2.65
2022-09-04T02:25:24.665Z,3.25
2022-09-04T02:27:54.232Z,2.80
2022-09-04T02:30:21.535Z,2.65
2022-09-04T02:33:06.209Z,3.40
2022-09-04T02:35:43.982Z,3.10
2022-09-04T02:38:47.924Z,3.63
2022-09-04T02:41:50.897Z,3.65
2022-09-04T02:44:47.582Z,3.38
2022-09-04T02:47:29.148Z,3.13
2022-09-04T02:49:58.700Z,2.70
2022-09-04T02:55:45.409Z,3.40
2022-09-04T02:58:39.704Z,2.97
2022-09-04T03:01:28.942Z,2.80
2022-09-04T03:04:13.808Z,3.42
2022-09-04T03:06:43.332Z,3.50
2022-09-04T03:12:26.346Z,3.50
2022-09-04T03:15:14.981Z,3.60
2022-09-04T03:17:50.267Z,3.57
2022-09-04T03:20:26.708Z,3.40
2022-09-04T03:23:21.437Z,3.40
2022-09-04T03:25:54.226Z,3.15
2022-09-04T03:28:31.178Z,3.15
2022-09-04T03:31:02.860Z,2.95
2022-09-04T03:33:51.050Z,2.97
2022-09-04T03:36:40.255Z,2.83
2022-09-04T03:39:34.655Z,2.72
2022-09-04T03:42:16.768Z,2.83
2022-09-04T03:44:52.293Z,3.08
2022-09-04T03:47:56.049Z,2.75
2022-09-04T03:50:33.650Z,2.70
2022-09-04T03:53:09.250Z,2.72
2022-09-04T03:55:48.050Z,3.10
2022-09-04T03:58:38.185Z,2.97
2022-09-04T04:01:31.027Z,3.10
2022-09-04T04:04:16.196Z,3.53
2022-09-04T04:06:48.898Z,2.90
2022-09-04T04:09:27.062Z,2.90
2022-09-04T04:12:27.581Z,3.08
2022-09-04T04:15:12.875Z,2.97
2022-09-04T04:18:21.892Z,2.95
2022-09-04T04:21:35.983Z,3.17
2022-09-04T04:24:48.216Z,3.13
2022-09-04T04:27:36.108Z,3.10
2022-09-04T04:30:05.712Z,2.65
2022-09-04T04:32:41.297Z,2.53
2022-09-04T04:35:18.220Z,3.17
2022-09-04T04:38:06.548Z,3.38
2022-09-04T04:40:47.961Z,2.92
2022-09-04T04:43:17.472Z,2.80
2022-09-04T04:48:48.326Z,3.03
2022-09-04T04:51:42.375Z,2.53
2022-09-04T04:54:43.077Z,2.88
2022-09-04T04:57:18.747Z,3.08
2022-09-04T04:59:54.431Z,3.05
2022-09-04T05:02:54.316Z,4.10
2022-09-04T05:05:45.978Z,3.17
2022-09-04T05:08:29.305Z,3.15
2022-09-04T05:11:07.745Z,3.17
2022-09-04T05:14:02.219Z,3.08
2022-09-04T05:16:54.833Z,2.95
2022-09-04T05:19:22.595Z,3.15
2022-09-04T05:22:19.659Z,3.05
2022-09-04T05:25:01.114Z,3.08
2022-09-04T05:27:42.955Z,3.15
2022-09-04T05:30:22.328Z,2.75
2022-09-04T05:33:01.041Z,3.67
2022-09-04T05:35:59.853Z,2.87
2022-09-04T05:38:33.988Z,3.70
2022-09-04T05:41:06.205Z,3.85
2022-09-04T05:44:02.598Z,3.53
2022-09-04T05:46:31.919Z,4.60
2022-09-04T05:49:09.033Z,3.40
2022-09-04T05:51:58.227Z,4.80
2022-09-04T05:54:54.957Z,4.32
2022-09-04T05:57:28.827Z,4.90
2022-09-04T06:00:14.852Z,4.40
2022-09-04T06:03:05.714Z,5.07
2022-09-04T06:05:39.636Z,5.22
2022-09-04T06:08:28.507Z,4.57
2022-09-04T06:11:14.087Z,17.15
2022-09-04T06:14:23.987Z,5.82
2022-09-04T06:17:29.158Z,4.97
2022-09-04T06:20:15.944Z,5.60
2022-09-04T06:23:19.701Z,4.40
2022-09-04T06:26:04.459Z,5.05
2022-09-04T06:29:02.375Z,5.30
2022-09-04T06:31:50.039Z,5.20
2022-09-04T06:34:45.868Z,4.97
2022-09-04T06:37:24.466Z,4.35
2022-09-04T06:40:12.240Z,5.13
2022-09-04T06:50:53.733Z,4.78
2022-09-04T06:53:59.649Z,4.25
2022-09-04T06:56:29.008Z,4.65
2022-09-04T06:59:31.239Z,5.25
2022-09-04T07:02:25.995Z,5.03
2022-09-04T07:05:17.981Z,4.85
2022-09-04T07:07:52.522Z,4.28
2022-09-04T07:10:28.352Z,4.25
2022-09-04T07:13:13.539Z,4.40
2022-09-04T07:15:50.026Z,6.32
2022-09-04T07:18:51.162Z,3.70
2022-09-04T07:21:30.370Z,3.83
2022-09-04T07:26:34.757Z,3.85
2022-09-04T07:29:37.384Z,3.38
2022-09-04T07:32:20.213Z,3.22
2022-09-04T07:34:56.928Z,3.30
2022-09-04T07:37:33.353Z,3.85
2022-09-04T07:40:10.044Z,3.40
2022-09-04T07:42:42.825Z,2.88
2022-09-04T07:45:34.560Z,3.50
2022-09-04T07:48:39.185Z,3.42
2022-09-04T07:51:14.882Z,2.85
2022-09-04T07:54:05.831Z,2.60
2022-09-04T07:56:58.288Z,2.63
2022-09-04T07:59:56.440Z,2.97
2022-09-04T08:02:50.837Z,2.72
2022-09-04T08:05:29.757Z,2.70
2022-09-04T08:08:17.848Z,2.90
2022-09-04T08:11:15.842Z,2.53
2022-09-04T08:14:02.006Z,2.28
2022-09-04T08:16:40.892Z,2.40
2022-09-04T08:19:48.757Z,2.28
2022-09-04T08:22:30.847Z,2.42
2022-09-04T08:25:23.952Z,2.30
2022-09-04T08:27:50.491Z,2.42
2022-09-04T08:30:20.320Z,2.45
2022-09-04T08:33:06.910Z,2.50
2022-09-04T08:35:52.234Z,2.38
2022-09-04T08:38:44.849Z,3.05
2022-09-04T08:41:40.039Z,4.85
2022-09-04T08:44:28.237Z,2.13
2022-09-04T08:47:10.431Z,2.28
2022-09-04T08:49:58.657Z,1.85
2022-09-04T08:52:46.540Z,2.30
2022-09-04T08:55:25.516Z,1.98
2022-09-04T08:58:01.293Z,2.03
2022-09-04T09:00:40.727Z,1.90
2022-09-04T09:03:22.248Z,1.60
2022-09-04T09:06:26.529Z,1.70
2022-09-04T09:09:11.313Z,1.90
2022-09-04T09:11:50.106Z,2.03
2022-09-04T09:14:41.936Z,1.67
2022-09-04T09:17:38.276Z,1.65
2022-09-04T09:20:29.677Z,1.60
2022-09-04T09:23:20.743Z,1.90
2022-09-04T09:26:09.114Z,1.80
2022-09-04T09:29:13.393Z,1.88
2022-09-04T09:31:52.177Z,2.95
2022-09-04T09:34:56.291Z,1.50
2022-09-04T09:37:44.895Z,2.00
2022-09-04T09:40:23.983Z,1.90
2022-09-04T09:43:34.679Z,1.58
2022-09-04T09:46:10.128Z,1.73
2022-09-04T09:49:04.752Z,1.70
2022-09-04T09:51:50.208Z,1.60
2022-09-04T09:54:32.804Z,1.80
2022-09-04T09:57:29.688Z,1.63
2022-09-04T10:00:17.022Z,1.48
2022-09-04T10:03:07.199Z,1.63
2022-09-04T10:06:11.675Z,1.50
2022-09-04T10:09:09.227Z,1.50
2022-09-04T10:12:04.213Z,1.83
2022-09-04T10:15:00.449Z,1.52
2022-09-04T10:18:04.193Z,1.73
2022-09-04T10:21:10.530Z,1.60
2022-09-04T10:24:21.987Z,1.50
2022-09-04T10:27:09.155Z,1.73
2022-09-04T10:30:02.823Z,1.77
2022-09-04T10:32:40.603Z,1.55
2022-09-04T10:35:25.242Z,1.75
2022-09-04T10:38:01.024Z,1.60
2022-09-04T10:41:14.949Z,1.63
2022-09-04T10:44:05.730Z,1.50
2022-09-04T10:46:48.608Z,1.50
2022-09-04T10:49:18.209Z,1.17
2022-09-04T10:52:21.736Z,1.30
2022-09-04T10:55:06.921Z,1.10
2022-09-04T10:58:01.664Z,1.55
2022-09-04T11:00:51.240Z,1.27
2022-09-04T11:03:28.090Z,1.17
2022-09-04T11:06:26.351Z,1.40
2022-09-04T11:09:07.783Z,1.53
2022-09-04T11:11:46.857Z,1.40
2022-09-04T11:14:30.773Z,1.33
2022-09-04T11:17:04.328Z,1.13
2022-09-04T11:20:18.405Z,1.20
2022-09-04T11:23:22.381Z,1.15
2022-09-04T11:26:07.738Z,1.30
2022-09-04T11:29:10.962Z,1.30
2022-09-04T11:31:40.174Z,1.20
2022-09-04T11:37:02.066Z,1.00
2022-09-04T11:39:56.229Z,0.93
2022-09-04T11:42:41.733Z,1.38
2022-09-04T11:45:48.169Z,1.20
2022-09-04T11:48:29.430Z,1.10
2022-09-04T11:51:28.858Z,1.20
2022-09-04T11:54:04.524Z,1.40
2022-09-04T11:56:33.932Z,1.58
2022-09-04T11:59:15.731Z,1.27
2022-09-04T12:01:57.626Z,1.10
2022-09-04T12:04:39.447Z,1.05
2022-09-04T12:07:42.709Z,1.00
2022-09-04T12:10:24.154Z,1.00
2022-09-04T12:12:53.765Z,0.90
2022-09-04T12:15:23.312Z,1.00
2022-09-04T12:18:34.599Z,0.82
2022-09-04T12:21:14.167Z,1.05
2022-09-04T12:23:58.727Z,0.85
2022-09-04T12:26:51.484Z,1.00
2022-09-04T12:29:27.544Z,1.00
2022-09-04T12:32:21.385Z,1.00
2022-09-04T12:35:12.528Z,1.60
2022-09-04T12:37:58.345Z,0.90
2022-09-04T12:40:34.079Z,0.95
2022-09-04T12:43:16.519Z,0.90
2022-09-04T12:46:30.983Z,1.02
2022-09-04T12:49:28.319Z,0.93
2022-09-04T12:52:32.452Z,1.10
2022-09-04T12:55:11.191Z,0.88
2022-09-04T12:57:55.749Z,0.90
2022-09-04T13:00:26.358Z,0.70
2022-09-04T13:03:14.880Z,0.75
2022-09-04T13:05:52.762Z,0.90
2022-09-04T13:08:54.557Z,0.70
2022-09-04T13:11:39.136Z,0.90
2022-09-04T13:14:40.835Z,0.95
2022-09-04T13:17:30.985Z,0.80
2022-09-04T13:20:39.065Z,0.80
2022-09-04T13:23:26.020Z,0.90
2022-09-04T13:26:24.614Z,0.90
2022-09-04T13:29:15.830Z,1.13
2022-09-04T13:31:54.729Z,1.00
2022-09-04T13:34:30.821Z,0.90
2022-09-04T13:37:23.354Z,1.00
2022-09-04T13:40:10.622Z,0.90
2022-09-04T13:42:52.227Z,1.00
2022-09-04T13:45:24.095Z,1.00
2022-09-04T13:48:08.503Z,0.80
2022-09-04T13:50:40.306Z,1.08
2022-09-04T13:53:22.314Z,1.15
2022-09-04T13:56:01.133Z,1.05
2022-09-04T13:58:33.280Z,1.13
2022-09-04T14:01:03.119Z,0.95
2022-09-04T14:03:33.479Z,1.20
2022-09-04T14:06:01.705Z,1.02
2022-09-04T14:08:31.176Z,1.00
2022-09-04T14:11:26.170Z,1.00
2022-09-04T14:14:03.329Z,0.95
2022-09-04T14:16:36.603Z,1.10
2022-09-04T14:19:36.126Z,1.00
2022-09-04T14:22:17.203Z,1.00
2022-09-04T14:25:11.937Z,0.90
2022-09-04T14:27:41.636Z,0.80
2022-09-04T14:30:41.062Z,1.02
2022-09-04T14:33:35.484Z,2.15
2022-09-04T14:36:34.299Z,1.33
2022-09-04T14:39:06.746Z,0.90
2022-09-04T14:42:03.622Z,3.60
2022-09-04T14:44:54.614Z,1.20
2022-09-04T14:47:27.054Z,1.15
2022-09-04T14:50:01.321Z,0.80
2022-09-04T14:52:53.340Z,1.00
2022-09-04T14:55:32.387Z,0.93
2022-09-04T14:58:39.075Z,1.10
2022-09-04T15:01:26.632Z,1.23
2022-09-04T15:04:01.619Z,1.30
2022-09-04T15:06:54.740Z,1.17
2022-09-04T15:09:35.026Z,1.20
2022-09-04T15:12:26.168Z,1.27
2022-09-04T15:15:06.021Z,1.00
2022-09-04T15:17:37.986Z,1.00
2022-09-04T15:20:22.509Z,1.35
2022-09-04T15:23:21.568Z,1.15
2022-09-04T15:26:03.333Z,1.10
2022-09-04T15:28:45.196Z,1.05
2022-09-04T15:31:35.491Z,1.23
2022-09-04T15:34:08.918Z,1.17
2022-09-04T15:36:37.782Z,1.08
2022-09-04T15:39:20.522Z,1.10
2022-09-04T15:41:50.288Z,1.27
2022-09-04T15:44:26.724Z,1.17
2022-09-04T15:47:14.343Z,1.10
2022-09-04T15:50:01.419Z,1.00
2022-09-04T15:52:43.889Z,1.10
2022-09-04T15:55:34.713Z,1.10
2022-09-04T15:58:25.515Z,1.08
2022-09-04T16:01:17.063Z,1.00
2022-09-04T16:04:07.191Z,1.10
2022-09-04T16:06:47.875Z,1.30
2022-09-04T16:09:27.971Z,1.33
2022-09-04T16:12:04.294Z,1.10
2022-09-04T16:14:44.715Z,1.52
2022-09-04T16:17:21.868Z,1.50
2022-09-04T16:19:53.818Z,1.60
2022-09-04T16:22:26.604Z,1.20
2022-09-04T16:25:10.246Z,1.33
2022-09-04T16:27:56.460Z,1.20
2022-09-04T16:30:30.197Z,1.60
2022-09-04T16:32:58.477Z,1.60
2022-09-04T16:35:28.510Z,2.30
2022-09-04T16:38:14.963Z,3.28
2022-09-04T16:40:56.171Z,1.50
2022-09-04T16:43:34.117Z,1.50
2022-09-04T16:46:31.290Z,1.42
2022-09-04T16:49:19.592Z,1.60
2022-09-04T16:52:00.213Z,1.40
2022-09-04T16:54:41.333Z,1.65
2022-09-04T16:57:21.582Z,1.58
2022-09-04T16:59:52.774Z,1.40
2022-09-04T17:02:50.843Z,1.70
2022-09-04T17:05:52.931Z,1.90
2022-09-04T17:08:25.540Z,2.00
2022-09-04T17:11:04.455Z,1.75
2022-09-04T17:13:43.585Z,2.30
2022-09-04T17:16:18.549Z,1.65
2022-09-04T17:18:49.007Z,1.55
2022-09-04T17:24:25.210Z,1.60
2022-09-04T17:29:08.973Z,1.73
2022-09-04T17:29:14.869Z,1.98
2022-09-04T17:31:52.098Z,1.85
2022-09-04T17:40:44.300Z,1.83
2022-09-04T17:41:31.276Z,1.90
2022-09-04T17:41:52.724Z,1.95
2022-09-04T17:44:31.792Z,2.05
2022-09-04T17:47:27.496Z,2.45
2022-09-04T17:49:55.745Z,2.35
2022-09-04T17:52:26.914Z,2.77
2022-09-04T17:54:58.614Z,2.15
2022-09-04T17:58:03.956Z,3.20
2022-09-04T18:01:14.653Z,4.45
2022-09-04T18:04:19.879Z,2.55
2022-09-04T18:07:21.396Z,2.33
2022-09-04T18:10:34.130Z,1.92
2022-09-04T18:13:37.976Z,2.30
2022-09-04T18:16:26.917Z,2.67
2022-09-04T18:18:58.531Z,2.87
2022-09-04T18:21:47.755Z,3.10
2022-09-04T18:24:53.403Z,3.80
2022-09-04T18:28:06.214Z,3.65
2022-09-04T18:37:07.652Z,3.35
2022-09-04T18:37:19.847Z,2.28
2022-09-04T18:37:20.789Z,2.50
2022-09-04T18:39:49.677Z,2.90
2022-09-04T18:50:32.728Z,2.65
2022-09-04T18:50:39.337Z,2.90
2022-09-04T18:50:46.486Z,2.40
2022-09-04T18:51:25.655Z,2.20
2022-09-04T18:54:01.672Z,2.55
2022-09-04T18:59:21.273Z,2.55
2022-09-04T19:01:58.474Z,2.90
2022-09-04T19:04:51.353Z,2.95
2022-09-04T19:07:31.767Z,2.47
2022-09-04T19:10:16.715Z,2.95
2022-09-04T19:13:21.798Z,2.90
2022-09-04T19:15:55.553Z,3.33
2022-09-04T19:18:35.832Z,3.45
2022-09-04T19:21:18.584Z,3.75
2022-09-04T19:23:51.182Z,3.20
2022-09-04T19:26:35.160Z,2.80
2022-09-04T19:29:10.668Z,2.35
2022-09-04T19:31:57.669Z,2.58
2022-09-04T19:34:45.424Z,2.65
2022-09-04T19:38:35.758Z,2.33
2022-09-04T19:46:01.524Z,2.30
2022-09-04T19:46:14.569Z,2.40
2022-09-04T19:46:37.154Z,2.67
2022-09-04T19:51:46.459Z,2.45
2022-09-04T19:53:34.345Z,3.03
2022-09-04T19:55:23.478Z,2.40
2022-09-04T19:58:05.089Z,2.38
2022-09-04T20:00:42.468Z,2.83
2022-09-04T20:03:29.950Z,2.60
2022-09-04T20:06:20.935Z,2.85
2022-09-04T20:09:14.731Z,2.50
2022-09-04T20:11:53.934Z,2.40
2022-09-04T20:14:31.600Z,2.67
2022-09-04T20:17:08.876Z,2.30
2022-09-04T20:19:44.926Z,2.63
2022-09-04T20:22:56.330Z,3.05
2022-09-04T20:25:28.993Z,2.60
2022-09-04T20:28:14.604Z,2.67
2022-09-04T20:30:44.622Z,2.20
2022-09-04T20:33:22.220Z,2.42
2022-09-04T20:36:03.024Z,2.88
2022-09-04T20:38:37.433Z,2.60
2022-09-04T20:41:27.581Z,2.63
2022-09-04T20:44:01.275Z,2.90
2022-09-04T20:52:46.018Z,2.65
2022-09-04T20:52:49.298Z,2.60
2022-09-04T20:52:49.485Z,2.70
2022-09-04T20:55:51.006Z,2.70
2022-09-04T21:03:04.481Z,2.65
2022-09-04T21:03:23.238Z,2.55
2022-09-04T21:04:23.862Z,2.80
2022-09-04T21:07:33.146Z,3.08
2022-09-04T21:10:14.858Z,2.97
2022-09-04T21:13:14.211Z,2.60
2022-09-04T21:15:47.165Z,3.10
2022-09-04T21:18:18.334Z,3.00
2022-09-04T21:21:06.829Z,2.83
2022-09-04T21:24:03.018Z,2.60
2022-09-04T21:27:04.888Z,2.95
2022-09-04T21:29:49.178Z,2.72
2022-09-04T21:32:43.437Z,2.88
2022-09-04T21:35:28.195Z,3.00
2022-09-04T21:38:02.603Z,3.00
2022-09-04T21:40:51.711Z,2.88
2022-09-04T21:43:24.936Z,2.55
2022-09-04T21:46:40.747Z,2.60
2022-09-04T21:49:37.813Z,2.40
2022-09-04T21:52:29.140Z,2.47
2022-09-04T21:56:09.590Z,2.70
2022-09-04T22:02:45.674Z,2.75
2022-09-04T22:03:51.975Z,2.70
2022-09-04T22:08:38.449Z,2.50
2022-09-04T22:13:40.330Z,2.60
2022-09-04T22:13:49.423Z,3.08
2022-09-04T22:16:29.128Z,2.95
2022-09-04T22:21:39.961Z,3.17
2022-09-04T22:24:32.334Z,2.60
2022-09-04T22:27:28.645Z,2.78
2022-09-04T22:30:08.153Z,3.13
2022-09-04T22:33:02.766Z,2.92
2022-09-04T22:35:54.821Z,2.42
2022-09-04T22:39:00.637Z,2.65
2022-09-04T22:41:50.310Z,2.60
2022-09-04T22:44:26.040Z,2.88
2022-09-04T22:46:55.617Z,3.03
2022-09-04T22:49:35.148Z,2.80
2022-09-04T22:52:36.873Z,2.70
2022-09-04T22:55:39.975Z,2.78
2022-09-04T22:58:20.373Z,3.00
2022-09-04T23:00:55.791Z,3.00
2022-09-04T23:03:22.657Z,2.75
2022-09-04T23:07:30.988Z,2.70
2022-09-04T23:13:49.989Z,2.08
2022-09-04T23:13:50.374Z,2.50
2022-09-04T23:15:51.619Z,2.70
2022-09-04T23:20:35.802Z,2.88
2022-09-04T23:26:47.346Z,2.75
2022-09-04T23:26:58.326Z,2.58
2022-09-04T23:28:27.128Z,2.85
2022-09-04T23:31:07.198Z,3.05
2022-09-04T23:33:41.269Z,2.70
2022-09-04T23:36:27.388Z,3.22
2022-09-04T23:39:03.150Z,3.15
2022-09-04T23:41:53.150Z,2.58
2022-09-04T23:45:02.142Z,2.67
2022-09-04T23:47:49.508Z,3.00
2022-09-04T23:50:37.697Z,3.00
2022-09-04T23:53:25.340Z,2.72
2022-09-04T23:55:58.042Z,3.28
2022-09-04T23:59:04.250Z,3.05
